North Newton, Kansas
Current Conditions -  °F | °C
As of 7:35 PM on Sunday 23 Nov 2014 (Local Time) from KEWK Reporting Station
Broken Clouds Broken Clouds  
Wind Chill: 33°   Ceiling: 11000
Heat Index: 41°   Visibility: 10mi
Dew Point: 32°   Wind: 16mph
Humidity: 70%   Direction: 340°NNW
Pressure: 29.61"   Gusts: 25mph
Location:  38.07°N, 97.35°W
Report Text: KEWK 240135Z AUTO 34014G22KT 10SM BKN110 05/00 A2961 RMK AO1
Loading
Personal Weather Stations






























Interactive Weather Map New forecast layout! Learn more

10-Day Weather Forecast

Advertisements
Track Severe Weather on mobile